sensor_id;sensor_type;location;lat;lon;timestamp;pressure;altitude;pressure_sealevel;temperature;humidity
55351;BME280;62194;49.480;10.986;2023-03-14T00:00:01;96441.81;;;8.28;100.00
55351;BME280;62194;49.480;10.986;2023-03-14T00:00:13;96426.25;;;8.21;100.00
55351;BME280;62194;49.480;10.986;2023-03-14T00:00:19;96458.97;;;8.36;100.00
55351;BME280;62194;49.480;10.986;2023-03-14T00:00:24;96442.59;;;8.29;100.00
55351;BME280;62194;49.480;10.986;2023-03-14T00:00:29;96436.34;;;8.21;100.00
55351;BME280;62194;49.480;10.986;2023-03-14T00:00:35;96459.41;;;8.38;100.00
55351;BME280;62194;49.480;10.986;2023-03-14T00:00:40;96460.50;;;8.37;100.00
55351;BME280;62194;49.480;10.986;2023-03-14T00:00:45;96460.19;;;8.38;100.00
55351;BME280;62194;49.480;10.986;2023-03-14T00:00:51;96480.88;;;8.50;100.00
55351;BME280;62194;49.480;10.986;2023-03-14T00:00:57;96470.28;;;8.41;100.00
55351;BME280;62194;49.480;10.986;2023-03-14T00:01:15;96462.16;;;8.41;100.00
55351;BME280;62194;49.480;10.986;2023-03-14T00:01:20;96460.19;;;8.38;100.00
55351;BME280;62194;49.480;10.986;2023-03-14T00:01:26;96479.69;;;8.51;100.00
55351;BME280;62194;49.480;10.986;2023-03-14T00:01:31;96458.59;;;8.37;100.00
55351;BME280;62194;49.480;10.986;2023-03-14T00:01:36;96486.31;;;8.50;100.00
55351;BME280;62194;49.480;10.986;2023-03-14T00:01:44;96469.91;;;8.43;100.00
55351;BME280;62194;49.480;10.986;2023-03-14T00:01:50;96478.53;;;8.52;100.00
55351;BME280;62194;49.480;10.986;2023-03-14T00:01:56;96485.53;;;8.53;100.00
55351;BME280;62194;49.480;10.986;2023-03-14T00:02:01;96478.94;;;8.51;100.00
55351;BME280;62194;49.480;10.986;2023-03-14T00:02:06;96479.31;;;8.53;100.00
55351;BME280;62194;49.480;10.986;2023-03-14T00:02:12;96437.91;;;8.26;100.00
55351;BME280;62194;49.480;10.986;2023-03-14T00:02:17;96450.81;;;8.36;100.00
55351;BME280;62194;49.480;10.986;2023-03-14T00:02:22;96485.50;;;8.50;100.00
55351;BME280;62194;49.480;10.986;2023-03-14T00:02:28;96475.38;;;8.47;100.00
55351;BME280;62194;49.480;10.986;2023-03-14T00:02:33;96485.53;;;8.53;100.00
55351;BME280;62194;49.480;10.986;2023-03-14T00:02:39;96463.56;;;8.32;100.00
55351;BME280;62194;49.480;10.986;2023-03-14T00:02:44;96453.81;;;8.27;100.00
55351;BME280;62194;49.480;10.986;2023-03-14T00:02:53;96469.88;;;8.39;100.00
55351;BME280;62194;49.480;10.986;2023-03-14T00:02:59;96473.03;;;8.45;100.00
55351;BME280;62194;49.480;10.986;2023-03-14T00:03:04;96482.75;;;8.46;100.00
55351;BME280;62194;49.480;10.986;2023-03-14T00:03:09;96490.19;;;8.53;100.00
55351;BME280;62194;49.480;10.986;2023-03-14T00:03:15;96483.13;;;8.44;100.00
55351;BME280;62194;49.480;10.986;2023-03-14T00:03:20;96488.63;;;8.52;100.00
55351;BME280;62194;49.480;10.986;2023-03-14T00:03:28;96481.22;;;8.49;100.00
55351;BME280;62194;49.480;10.986;2023-03-14T00:03:33;96461.22;;;8.30;100.00
55351;BME280;62194;49.480;10.986;2023-03-14T00:03:38;96485.50;;;8.50;100.00
55351;BME280;62194;49.480;10.986;2023-03-14T00:03:44;96480.41;;;8.44;100.00
55351;BME280;62194;49.480;10.986;2023-03-14T00:03:50;96469.03;;;8.35;100.00
55351;BME280;62194;49.480;10.986;2023-03-14T00:03:55;96472.25;;;8.41;100.00
55351;BME280;62194;49.480;10.986;2023-03-14T00:04:04;96463.59;;;8.35;100.00
55351;BME280;62194;49.480;10.986;2023-03-14T00:04:09;96472.25;;;8.41;100.00
55351;BME280;62194;49.480;10.986;2023-03-14T00:04:14;96477.31;;;8.46;100.00
55351;BME280;62194;49.480;10.986;2023-03-14T00:04:20;96457.72;;;8.30;100.00
55351;BME280;62194;49.480;10.986;2023-03-14T00:04:25;96451.53;;;8.29;100.00
55351;BME280;62194;49.480;10.986;2023-03-14T00:04:30;96453.50;;;8.32;100.00
55351;BME280;62194;49.480;10.986;2023-03-14T00:04:36;96477.69;;;8.44;100.00
55351;BME280;62194;49.480;10.986;2023-03-14T00:04:41;96464.00;;;8.34;100.00
55351;BME280;62194;49.480;10.986;2023-03-14T00:04:47;96450.00;;;8.32;100.00
55351;BME280;62194;49.480;10.986;2023-03-14T00:04:54;96453.88;;;8.31;100.00
55351;BME280;62194;49.480;10.986;2023-03-14T00:05:00;96467.19;;;8.43;100.00
55351;BME280;62194;49.480;10.986;2023-03-14T00:05:08;96475.78;;;8.49;100.00
55351;BME280;62194;49.480;10.986;2023-03-14T00:05:14;96474.59;;;8.46;100.00
55351;BME280;62194;49.480;10.986;2023-03-14T00:05:19;96471.88;;;8.46;100.00
55351;BME280;62194;49.480;10.986;2023-03-14T00:05:24;96483.97;;;8.52;100.00
55351;BME280;62194;49.480;10.986;2023-03-14T00:05:30;96473.41;;;8.43;100.00
55351;BME280;62194;49.480;10.986;2023-03-14T00:05:35;96468.31;;;8.38;100.00
55351;BME280;62194;49.480;10.986;2023-03-14T00:05:41;96481.63;;;8.51;100.00
55351;BME280;62194;49.480;10.986;2023-03-14T00:05:46;96478.94;;;8.51;100.00
55351;BME280;62194;49.480;10.986;2023-03-14T00:05:53;96470.69;;;8.43;100.00
55351;BME280;62194;49.480;10.986;2023-03-14T00:06:02;96456.97;;;8.33;100.00
55351;BME280;62194;49.480;10.986;2023-03-14T00:06:08;96452.25;;;8.26;100.00
55351;BME280;62194;49.480;10.986;2023-03-14T00:06:14;96439.81;;;8.21;100.00
55351;BME280;62194;49.480;10.986;2023-03-14T00:06:20;96474.56;;;8.42;100.00
55351;BME280;62194;49.480;10.986;2023-03-14T00:06:26;96472.63;;;8.43;100.00
55351;BME280;62194;49.480;10.986;2023-03-14T00:06:31;96450.78;;;8.32;100.00
55351;BME280;62194;49.480;10.986;2023-03-14T00:06:37;96474.28;;;8.51;100.00
55351;BME280;62194;49.480;10.986;2023-03-14T00:06:42;96450.00;;;8.32;100.00
55351;BME280;62194;49.480;10.986;2023-03-14T00:06:47;96458.56;;;8.34;100.00
55351;BME280;62194;49.480;10.986;2023-03-14T00:06:54;96449.19;;;8.28;100.00
55351;BME280;62194;49.480;10.986;2023-03-14T00:06:59;96457.78;;;8.37;100.00
55351;BME280;62194;49.480;10.986;2023-03-14T00:07:05;96461.66;;;8.36;100.00
55351;BME280;62194;49.480;10.986;2023-03-14T00:07:11;96475.38;;;8.47;100.00
55351;BME280;62194;49.480;10.986;2023-03-14T00:07:16;96477.31;;;8.46;100.00
55351;BME280;62194;49.480;10.986;2023-03-14T00:07:21;96473.78;;;8.42;100.00
55351;BME280;62194;49.480;10.986;2023-03-14T00:07:29;96447.25;;;8.28;100.00
55351;BME280;62194;49.480;10.986;2023-03-14T00:07:39;96473.78;;;8.42;100.00
55351;BME280;62194;49.480;10.986;2023-03-14T00:07:44;96459.41;;;8.38;100.00
55351;BME280;62194;49.480;10.986;2023-03-14T00:07:50;96471.06;;;8.42;100.00
55351;BME280;62194;49.480;10.986;2023-03-14T00:07:55;96450.34;;;8.30;100.00
55351;BME280;62194;49.480;10.986;2023-03-14T00:08:00;96471.47;;;8.40;100.00
55351;BME280;62194;49.480;10.986;2023-03-14T00:08:06;96480.44;;;8.48;100.00
55351;BME280;62194;49.480;10.986;2023-03-14T00:08:12;96444.16;;;8.30;100.00
55351;BME280;62194;49.480;10.986;2023-03-14T00:08:17;96455.88;;;8.37;100.00
55351;BME280;62194;49.480;10.986;2023-03-14T00:08:23;96460.63;;;8.44;100.00
55351;BME280;62194;49.480;10.986;2023-03-14T00:08:30;96477.44;;;8.57;100.00
55351;BME280;62194;49.480;10.986;2023-03-14T00:08:36;96479.38;;;8.60;100.00
55351;BME280;62194;49.480;10.986;2023-03-14T00:08:42;96488.31;;;8.60;100.00
55351;BME280;62194;49.480;10.986;2023-03-14T00:08:49;96486.00;;;8.62;100.00
55351;BME280;62194;49.480;10.986;2023-03-14T00:08:54;96479.44;;;8.63;100.00
55351;BME280;62194;49.480;10.986;2023-03-14T00:08:59;96470.09;;;8.61;100.00
55351;BME280;62194;49.480;10.986;2023-03-14T00:09:05;96472.06;;;8.64;100.00
55351;BME280;62194;49.480;10.986;2023-03-14T00:09:10;96452.94;;;8.53;100.00
55351;BME280;62194;49.480;10.986;2023-03-14T00:09:16;96479.50;;;8.74;99.81
55351;BME280;62194;49.480;10.986;2023-03-14T00:09:21;96461.19;;;8.64;99.58
55351;BME280;62194;49.480;10.986;2023-03-14T00:09:27;96473.25;;;8.66;99.25
55351;BME280;62194;49.480;10.986;2023-03-14T00:09:34;96463.06;;;8.60;99.58
55351;BME280;62194;49.480;10.986;2023-03-14T00:09:40;96480.69;;;8.73;99.07
55351;BME280;62194;49.480;10.986;2023-03-14T00:09:45;96484.94;;;8.74;99.03
55351;BME280;62194;49.480;10.986;2023-03-14T00:09:51;96479.09;;;8.72;98.96
55351;BME280;62194;49.480;10.986;2023-03-14T00:09:56;96477.97;;;8.73;99.13
55351;BME280;62194;49.480;10.986;2023-03-14T00:10:04;96456.44;;;8.54;99.91
55351;BME280;62194;49.480;10.986;2023-03-14T00:10:13;96452.94;;;8.53;100.00
55351;BME280;62194;49.480;10.986;2023-03-14T00:10:20;96468.94;;;8.65;99.46
55351;BME280;62194;49.480;10.986;2023-03-14T00:10:25;96475.19;;;8.70;99.06
55351;BME280;62194;49.480;10.986;2023-03-14T00:10:30;96474.06;;;8.71;98.91
55351;BME280;62194;49.480;10.986;2023-03-14T00:10:36;96481.81;;;8.72;98.58
55351;BME280;62194;49.480;10.986;2023-03-14T00:10:42;96473.66;;;8.72;98.71
55351;BME280;62194;49.480;10.986;2023-03-14T00:10:47;96472.53;;;8.73;98.92
55351;BME280;62194;49.480;10.986;2023-03-14T00:10:52;96461.56;;;8.66;98.85
55351;BME280;62194;49.480;10.986;2023-03-14T00:10:58;96464.72;;;8.72;98.87
55351;BME280;62194;49.480;10.986;2023-03-14T00:11:06;96484.19;;;8.77;98.71
55351;BME280;62194;49.480;10.986;2023-03-14T00:11:18;96479.06;;;8.68;99.12
55351;BME280;62194;49.480;10.986;2023-03-14T00:11:24;96480.28;;;8.75;99.11
55351;BME280;62194;49.480;10.986;2023-03-14T00:11:29;96451.03;;;8.57;98.85
55351;BME280;62194;49.480;10.986;2023-03-14T00:11:34;96468.22;;;8.72;98.60
55351;BME280;62194;49.480;10.986;2023-03-14T00:11:40;96459.56;;;8.59;98.71
55351;BME280;62194;49.480;10.986;2023-03-14T00:11:45;96465.47;;;8.65;98.62
55351;BME280;62194;49.480;10.986;2023-03-14T00:11:51;96461.53;;;8.59;98.54
55351;BME280;62194;49.480;10.986;2023-03-14T00:11:56;96472.03;;;8.60;98.69
55351;BME280;62194;49.480;10.986;2023-03-14T00:12:02;96454.06;;;8.49;98.60
55351;BME280;62194;49.480;10.986;2023-03-14T00:12:08;96473.94;;;8.60;98.17
55351;BME280;62194;49.480;10.986;2023-03-14T00:12:14;96469.31;;;8.60;98.69
55351;BME280;62194;49.480;10.986;2023-03-14T00:12:19;96471.63;;;8.58;99.46
55351;BME280;62194;49.480;10.986;2023-03-14T00:12:24;96480.19;;;8.60;99.33
55351;BME280;62194;49.480;10.986;2023-03-14T00:12:30;96485.25;;;8.65;99.50
55351;BME280;62194;49.480;10.986;2023-03-14T00:12:35;96459.91;;;8.51;99.43
55351;BME280;62194;49.480;10.986;2023-03-14T00:12:41;96484.13;;;8.66;99.35
55351;BME280;62194;49.480;10.986;2023-03-14T00:12:47;96482.16;;;8.63;99.17
55351;BME280;62194;49.480;10.986;2023-03-14T00:12:52;96475.88;;;8.59;99.14
55351;BME280;62194;49.480;10.986;2023-03-14T00:12:57;96469.22;;;8.53;99.08
55351;BME280;62194;49.480;10.986;2023-03-14T00:13:02;96455.19;;;8.44;99.09
55351;BME280;62194;49.480;10.986;2023-03-14T00:13:08;96466.44;;;8.46;99.57
55351;BME280;62194;49.480;10.986;2023-03-14T00:13:13;96481.34;;;8.63;99.54
55351;BME280;62194;49.480;10.986;2023-03-14T00:13:18;96472.34;;;8.55;99.41
55351;BME280;62194;49.480;10.986;2023-03-14T00:13:24;96459.81;;;8.43;99.33
55351;BME280;62194;49.480;10.986;2023-03-14T00:13:29;96452.84;;;8.42;99.53
55351;BME280;62194;49.480;10.986;2023-03-14T00:13:35;96486.75;;;8.59;99.62
55351;BME280;62194;49.480;10.986;2023-03-14T00:13:40;96483.97;;;8.52;99.50
55351;BME280;62194;49.480;10.986;2023-03-14T00:13:49;96485.97;;;8.59;99.53
55351;BME280;62194;49.480;10.986;2023-03-14T00:13:55;96482.47;;;8.58;99.75
55351;BME280;62194;49.480;10.986;2023-03-14T00:14:00;96474.28;;;8.51;99.82
55351;BME280;62194;49.480;10.986;2023-03-14T00:14:05;96482.41;;;8.51;100.00
55351;BME280;62194;49.480;10.986;2023-03-14T00:14:11;96462.94;;;8.42;100.00
55351;BME280;62194;49.480;10.986;2023-03-14T00:14:16;96476.97;;;8.51;100.00
55351;BME280;62194;49.480;10.986;2023-03-14T00:14:22;96488.28;;;8.57;99.85
55351;BME280;62194;49.480;10.986;2023-03-14T00:14:27;96465.66;;;8.46;99.96
55351;BME280;62194;49.480;10.986;2023-03-14T00:14:33;96487.50;;;8.56;99.67
55351;BME280;62194;49.480;10.986;2023-03-14T00:14:38;96491.00;;;8.57;99.69
55351;BME280;62194;49.480;10.986;2023-03-14T00:14:44;96452.75;;;8.35;99.97
55351;BME280;62194;49.480;10.986;2023-03-14T00:14:49;96471.09;;;8.46;99.89
55351;BME280;62194;49.480;10.986;2023-03-14T00:14:54;96477.75;;;8.52;100.00
55351;BME280;62194;49.480;10.986;2023-03-14T00:14:59;96480.50;;;8.55;100.00
55351;BME280;62194;49.480;10.986;2023-03-14T00:15:06;96486.31;;;8.54;99.88
55351;BME280;62194;49.480;10.986;2023-03-14T00:15:12;96462.91;;;8.38;99.96
55351;BME280;62194;49.480;10.986;2023-03-14T00:15:18;96459.72;;;8.36;99.70
55351;BME280;62194;49.480;10.986;2023-03-14T00:15:23;96480.88;;;8.50;99.68
55351;BME280;62194;49.480;10.986;2023-03-14T00:15:28;96468.66;;;8.37;99.63
55351;BME280;62194;49.480;10.986;2023-03-14T00:15:34;96489.78;;;8.51;99.47
55351;BME280;62194;49.480;10.986;2023-03-14T00:15:39;96476.81;;;8.37;99.53
55351;BME280;62194;49.480;10.986;2023-03-14T00:15:44;96490.56;;;8.51;99.48
55351;BME280;62194;49.480;10.986;2023-03-14T00:15:50;96481.19;;;8.45;99.91
55351;BME280;62194;49.480;10.986;2023-03-14T00:16:01;96462.84;;;8.35;100.00
55351;BME280;62194;49.480;10.986;2023-03-14T00:16:12;96482.41;;;8.51;100.00
55351;BME280;62194;49.480;10.986;2023-03-14T00:16:18;96454.25;;;8.33;100.00
55351;BME280;62194;49.480;10.986;2023-03-14T00:16:24;96488.63;;;8.52;100.00
55351;BME280;62194;49.480;10.986;2023-03-14T00:16:29;96471.81;;;8.39;100.00
55351;BME280;62194;49.480;10.986;2023-03-14T00:16:34;96498.72;;;8.51;100.00
55351;BME280;62194;49.480;10.986;2023-03-14T00:16:39;96476.94;;;8.44;100.00
55351;BME280;62194;49.480;10.986;2023-03-14T00:16:48;96486.69;;;8.52;100.00
55351;BME280;62194;49.480;10.986;2023-03-14T00:16:53;96481.22;;;8.49;100.00
55351;BME280;62194;49.480;10.986;2023-03-14T00:16:58;96468.75;;;8.40;100.00
55351;BME280;62194;49.480;10.986;2023-03-14T00:17:03;96463.31;;;8.40;100.00
55351;BME280;62194;49.480;10.986;2023-03-14T00:17:09;96482.47;;;8.58;100.00
55351;BME280;62194;49.480;10.986;2023-03-14T00:17:14;96496.06;;;8.58;100.00
55351;BME280;62194;49.480;10.986;2023-03-14T00:17:19;96486.72;;;8.56;100.00
55351;BME280;62194;49.480;10.986;2023-03-14T00:17:24;96465.16;;;8.36;100.00
55351;BME280;62194;49.480;10.986;2023-03-14T00:17:31;96483.19;;;8.52;99.74
55351;BME280;62194;49.480;10.986;2023-03-14T00:17:36;96478.94;;;8.51;100.00
55351;BME280;62194;49.480;10.986;2023-03-14T00:17:43;96486.75;;;8.59;100.00
55351;BME280;62194;49.480;10.986;2023-03-14T00:17:48;96459.78;;;8.40;99.96
55351;BME280;62194;49.480;10.986;2023-03-14T00:17:53;96482.03;;;8.53;99.63
55351;BME280;62194;49.480;10.986;2023-03-14T00:17:59;96493.75;;;8.60;99.21
55351;BME280;62194;49.480;10.986;2023-03-14T00:18:04;96469.94;;;8.47;99.26
55351;BME280;62194;49.480;10.986;2023-03-14T00:18:10;96461.72;;;8.39;99.20
55351;BME280;62194;49.480;10.986;2023-03-14T00:18:15;96479.31;;;8.53;99.15
55351;BME280;62194;49.480;10.986;2023-03-14T00:18:20;96478.94;;;8.51;99.01
55351;BME280;62194;49.480;10.986;2023-03-14T00:18:25;96463.31;;;8.40;99.15
55351;BME280;62194;49.480;10.986;2023-03-14T00:18:31;96477.31;;;8.46;99.11
55351;BME280;62194;49.480;10.986;2023-03-14T00:18:37;96483.94;;;8.49;99.46
55351;BME280;62194;49.480;10.986;2023-03-14T00:18:43;96473.41;;;8.43;99.23
55351;BME280;62194;49.480;10.986;2023-03-14T00:18:48;96494.53;;;8.61;99.31
55351;BME280;62194;49.480;10.986;2023-03-14T00:18:53;96485.22;;;8.62;99.06
55351;BME280;62194;49.480;10.986;2023-03-14T00:18:59;96481.28;;;8.56;98.91
55351;BME280;62194;49.480;10.986;2023-03-14T00:19:05;96470.81;;;8.54;98.69
55351;BME280;62194;49.480;10.986;2023-03-14T00:19:10;96490.69;;;8.65;98.88
55351;BME280;62194;49.480;10.986;2023-03-14T00:19:15;96490.69;;;8.65;98.98
55351;BME280;62194;49.480;10.986;2023-03-14T00:19:20;96486.38;;;8.61;99.02
55351;BME280;62194;49.480;10.986;2023-03-14T00:19:26;96465.31;;;8.47;98.99
55351;BME280;62194;49.480;10.986;2023-03-14T00:19:31;96489.44;;;8.56;99.14
55351;BME280;62194;49.480;10.986;2023-03-14T00:19:36;96480.47;;;8.52;98.98
55351;BME280;62194;49.480;10.986;2023-03-14T00:19:42;96484.38;;;8.54;98.83
55351;BME280;62194;49.480;10.986;2023-03-14T00:19:47;96487.84;;;8.51;99.41
55351;BME280;62194;49.480;10.986;2023-03-14T00:19:54;96476.22;;;8.51;99.26
55351;BME280;62194;49.480;10.986;2023-03-14T00:20:00;96501.53;;;8.62;99.29
55351;BME280;62194;49.480;10.986;2023-03-14T00:20:13;96488.28;;;8.57;99.17
55351;BME280;62194;49.480;10.986;2023-03-14T00:20:18;96497.66;;;8.63;98.90
55351;BME280;62194;49.480;10.986;2023-03-14T00:20:23;96493.75;;;8.60;98.92
55351;BME280;62194;49.480;10.986;2023-03-14T00:20:29;96480.44;;;8.48;98.80
55351;BME280;62194;49.480;10.986;2023-03-14T00:20:34;96474.25;;;8.48;98.68
55351;BME280;62194;49.480;10.986;2023-03-14T00:20:39;96485.09;;;8.48;98.92
55351;BME280;62194;49.480;10.986;2023-03-14T00:20:44;96492.91;;;8.53;98.67
55351;BME280;62194;49.480;10.986;2023-03-14T00:20:50;96472.63;;;8.43;98.79
55351;BME280;62194;49.480;10.986;2023-03-14T00:20:58;96473.03;;;8.45;98.82
55351;BME280;62194;49.480;10.986;2023-03-14T00:21:05;96496.84;;;8.59;99.15
55351;BME280;62194;49.480;10.986;2023-03-14T00:21:11;96495.66;;;8.60;99.04
55351;BME280;62194;49.480;10.986;2023-03-14T00:21:17;96494.84;;;8.52;98.98
55351;BME280;62194;49.480;10.986;2023-03-14T00:21:22;96498.34;;;8.56;99.47
55351;BME280;62194;49.480;10.986;2023-03-14T00:21:27;96485.91;;;8.52;99.37
55351;BME280;62194;49.480;10.986;2023-03-14T00:21:33;96474.53;;;8.39;99.30
55351;BME280;62194;49.480;10.986;2023-03-14T00:21:38;96491.72;;;8.50;99.50
55351;BME280;62194;49.480;10.986;2023-03-14T00:21:43;96503.44;;;8.58;99.34
55351;BME280;62194;49.480;10.986;2023-03-14T00:21:48;96482.34;;;8.44;99.52
55351;BME280;62194;49.480;10.986;2023-03-14T00:21:54;96504.97;;;8.55;99.70
55351;BME280;62194;49.480;10.986;2023-03-14T00:21:59;96474.09;;;8.37;99.65
55351;BME280;62194;49.480;10.986;2023-03-14T00:22:04;96483.50;;;8.43;99.71
55351;BME280;62194;49.480;10.986;2023-03-14T00:22:10;96484.66;;;8.42;99.65
55351;BME280;62194;49.480;10.986;2023-03-14T00:22:15;96481.94;;;8.42;99.76
55351;BME280;62194;49.480;10.986;2023-03-14T00:22:21;96480.78;;;8.43;99.76
55351;BME280;62194;49.480;10.986;2023-03-14T00:22:26;96503.75;;;8.53;99.86
55351;BME280;62194;49.480;10.986;2023-03-14T00:22:32;96479.59;;;8.40;99.62
55351;BME280;62194;49.480;10.986;2023-03-14T00:22:38;96472.03;;;8.27;99.46
55351;BME280;62194;49.480;10.986;2023-03-14T00:22:43;96504.16;;;8.51;99.50
55351;BME280;62194;49.480;10.986;2023-03-14T00:22:48;96487.28;;;8.35;99.74
55351;BME280;62194;49.480;10.986;2023-03-14T00:22:54;96483.03;;;8.37;99.38
55351;BME280;62194;49.480;10.986;2023-03-14T00:22:59;96490.38;;;8.37;99.28
55351;BME280;62194;49.480;10.986;2023-03-14T00:23:04;96512.66;;;8.50;99.74
55351;BME280;62194;49.480;10.986;2023-03-14T00:23:10;96492.84;;;8.46;99.90
55351;BME280;62194;49.480;10.986;2023-03-14T00:23:15;96468.97;;;8.28;99.75
55351;BME280;62194;49.480;10.986;2023-03-14T00:23:20;96492.41;;;8.43;99.77
55351;BME280;62194;49.480;10.986;2023-03-14T00:23:27;96483.03;;;8.37;99.77
55351;BME280;62194;49.480;10.986;2023-03-14T00:23:35;96504.50;;;8.50;99.86
55351;BME280;62194;49.480;10.986;2023-03-14T00:23:41;96495.53;;;8.46;99.69
55351;BME280;62194;49.480;10.986;2023-03-14T00:23:47;96486.09;;;8.36;99.54
55351;BME280;62194;49.480;10.986;2023-03-14T00:23:52;96497.09;;;8.47;99.74
55351;BME280;62194;49.480;10.986;2023-03-14T00:23:58;96476.81;;;8.37;99.49
55351;BME280;62194;49.480;10.986;2023-03-14T00:24:03;96506.06;;;8.47;99.57
55351;BME280;62194;49.480;10.986;2023-03-14T00:24:08;96488.88;;;8.39;99.58
55351;BME280;62194;49.480;10.986;2023-03-14T00:24:14;96477.56;;;8.34;99.73
55351;BME280;62194;49.480;10.986;2023-03-14T00:24:19;96479.88;;;8.32;99.64
55351;BME280;62194;49.480;10.986;2023-03-14T00:24:24;96470.50;;;8.26;99.48
55351;BME280;62194;49.480;10.986;2023-03-14T00:24:30;96492.72;;;8.35;99.65
55351;BME280;62194;49.480;10.986;2023-03-14T00:24:35;96498.63;;;8.40;99.62
55351;BME280;62194;49.480;10.986;2023-03-14T00:24:40;96496.69;;;8.41;99.46
55351;BME280;62194;49.480;10.986;2023-03-14T00:24:46;96486.50;;;8.34;99.84
55351;BME280;62194;49.480;10.986;2023-03-14T00:24:51;96451.78;;;8.17;99.57
55351;BME280;62194;49.480;10.986;2023-03-14T00:24:56;96504.47;;;8.46;99.61
55351;BME280;62194;49.480;10.986;2023-03-14T00:25:02;96500.56;;;8.43;99.67
55351;BME280;62194;49.480;10.986;2023-03-14T00:25:09;96492.78;;;8.38;99.61
55351;BME280;62194;49.480;10.986;2023-03-14T00:25:15;96506.34;;;8.38;99.57
55351;BME280;62194;49.480;10.986;2023-03-14T00:25:20;96491.94;;;8.34;99.93
55351;BME280;62194;49.480;10.986;2023-03-14T00:25:26;96474.72;;;8.23;99.71
55351;BME280;62194;49.480;10.986;2023-03-14T00:25:31;96496.16;;;8.32;99.70
55351;BME280;62194;49.480;10.986;2023-03-14T00:25:36;96510.28;;;8.44;100.00
55351;BME280;62194;49.480;10.986;2023-03-14T00:25:42;96496.97;;;8.36;100.00
55351;BME280;62194;49.480;10.986;2023-03-14T00:25:47;96505.22;;;8.43;100.00
55351;BME280;62194;49.480;10.986;2023-03-14T00:25:52;96510.28;;;8.44;100.00
55351;BME280;62194;49.480;10.986;2023-03-14T00:26:20;96482.59;;;8.32;100.00
55351;BME280;62194;49.480;10.986;2023-03-14T00:26:24;96483.00;;;8.34;100.00
55351;BME280;62194;49.480;10.986;2023-03-14T00:26:29;96509.19;;;8.53;100.00
55351;BME280;62194;49.480;10.986;2023-03-14T00:26:34;96497.91;;;8.47;100.00
55351;BME280;62194;49.480;10.986;2023-03-14T00:26:40;96513.50;;;8.54;100.00
55351;BME280;62194;49.480;10.986;2023-03-14T00:26:45;96483.03;;;8.37;100.00
55351;BME280;62194;49.480;10.986;2023-03-14T00:26:50;96481.03;;;8.31;100.00
55351;BME280;62194;49.480;10.986;2023-03-14T00:26:56;96488.81;;;8.36;100.00
55351;BME280;62194;49.480;10.986;2023-03-14T00:27:01;96510.31;;;8.48;100.00
55351;BME280;62194;49.480;10.986;2023-03-14T00:27:06;96498.66;;;8.44;100.00
55351;BME280;62194;49.480;10.986;2023-03-14T00:27:12;96491.19;;;8.37;99.84
55351;BME280;62194;49.480;10.986;2023-03-14T00:27:17;96503.28;;;8.43;99.71
55351;BME280;62194;49.480;10.986;2023-03-14T00:27:23;96506.34;;;8.38;99.72
55351;BME280;62194;49.480;10.986;2023-03-14T00:27:28;96497.06;;;8.43;100.00
55351;BME280;62194;49.480;10.986;2023-03-14T00:27:33;96510.31;;;8.48;100.00
55351;BME280;62194;49.480;10.986;2023-03-14T00:27:39;96514.59;;;8.49;99.96
55351;BME280;62194;49.480;10.986;2023-03-14T00:27:44;96508.72;;;8.43;100.00
55351;BME280;62194;49.480;10.986;2023-03-14T00:27:50;96508.03;;;8.50;100.00
55351;BME280;62194;49.480;10.986;2023-03-14T00:27:56;96468.09;;;8.20;99.99
55351;BME280;62194;49.480;10.986;2023-03-14T00:28:01;96502.09;;;8.41;100.00
55351;BME280;62194;49.480;10.986;2023-03-14T00:28:07;96490.75;;;8.35;100.00
55351;BME280;62194;49.480;10.986;2023-03-14T00:28:12;96492.31;;;8.36;100.00
55351;BME280;62194;49.480;10.986;2023-03-14T00:28:18;96494.72;;;8.38;100.00
55351;BME280;62194;49.480;10.986;2023-03-14T00:28:23;96504.16;;;8.51;100.00
55351;BME280;62194;49.480;10.986;2023-03-14T00:28:28;96511.53;;;8.51;100.00
55351;BME280;62194;49.480;10.986;2023-03-14T00:28:35;96494.78;;;8.45;100.00
55351;BME280;62194;49.480;10.986;2023-03-14T00:28:41;96480.63;;;8.29;100.00
55351;BME280;62194;49.480;10.986;2023-03-14T00:28:51;96504.91;;;8.48;99.95
55351;BME280;62194;49.480;10.986;2023-03-14T00:28:56;96485.72;;;8.34;99.43
55351;BME280;62194;49.480;10.986;2023-03-14T00:29:02;96477.44;;;8.23;99.47
55351;BME280;62194;49.480;10.986;2023-03-14T00:29:08;96493.56;;;8.42;99.26
55351;BME280;62194;49.480;10.986;2023-03-14T00:29:13;96506.44;;;8.49;99.51
55351;BME280;62194;49.480;10.986;2023-03-14T00:29:18;96506.06;;;8.47;99.39
55351;BME280;62194;49.480;10.986;2023-03-14T00:29:23;96496.69;;;8.41;99.57
55351;BME280;62194;49.480;10.986;2023-03-14T00:29:29;96506.84;;;8.48;100.00
55351;BME280;62194;49.480;10.986;2023-03-14T00:29:34;96506.00;;;8.43;100.00
55351;BME280;62194;49.480;10.986;2023-03-14T00:29:39;96508.03;;;8.50;99.80
55351;BME280;62194;49.480;10.986;2023-03-14T00:29:45;96504.84;;;8.44;99.74
55351;BME280;62194;49.480;10.986;2023-03-14T00:29:50;96516.59;;;8.56;99.46
55351;BME280;62194;49.480;10.986;2023-03-14T00:29:56;96501.38;;;8.44;99.73
55351;BME280;62194;49.480;10.986;2023-03-14T00:30:01;96516.22;;;8.54;99.84
55351;BME280;62194;49.480;10.986;2023-03-14T00:30:07;96505.25;;;8.47;99.21
55351;BME280;62194;49.480;10.986;2023-03-14T00:30:13;96505.22;;;8.43;99.21
55351;BME280;62194;49.480;10.986;2023-03-14T00:30:18;96519.69;;;8.54;99.23
55351;BME280;62194;49.480;10.986;2023-03-14T00:30:24;96506.44;;;8.49;99.13
55351;BME280;62194;49.480;10.986;2023-03-14T00:30:29;96508.06;;;8.54;99.05
55351;BME280;62194;49.480;10.986;2023-03-14T00:30:37;96498.97;;;8.39;99.08
55351;BME280;62194;49.480;10.986;2023-03-14T00:30:42;96492.28;;;8.33;98.81
55351;BME280;62194;49.480;10.986;2023-03-14T00:30:48;96511.50;;;8.47;98.73
55351;BME280;62194;49.480;10.986;2023-03-14T00:30:53;96491.59;;;8.39;98.67